Time;durP1;ratioP1;P1;durP2;ratioP2;P2;SDS_P1;SDS_P2;PMS_P1;PMS_P2;Temp;Humidity;BMP_temperature;BMP_pressure;BME280_temperature;BME280_humidity;BME280_pressure;Samples;Min_cycle;Max_cycle;Signal;HPM_P1;HPM_P2
2023/05/02 00:01:31;;;;;;;45.35;42.13;;;;;;;20.40;45.95;101908.31;4994514;28;20126;-67
2023/05/02 00:03:57;;;;;;;45.45;42.10;;;;;;;20.39;46.30;101914.91;4977082;28;20069;-67
2023/05/02 00:06:23;;;;;;;40.85;37.92;;;;;;;20.36;46.46;101918.19;4977920;28;20061;-67
2023/05/02 00:08:49;;;;;;;45.10;41.92;;;;;;;20.35;46.11;101919.31;4994712;28;20034;-69
2023/05/02 00:11:14;;;;;;;45.50;42.10;;;;;;;20.32;45.98;101929.72;4977468;28;20037;-68
2023/05/02 00:13:40;;;;;;;45.65;42.15;;;;;;;20.30;46.45;101926.44;4994472;28;20030;-68
2023/05/02 00:16:06;;;;;;;44.33;41.03;;;;;;;20.29;46.06;101930.28;4994401;28;20035;-68
2023/05/02 00:18:31;;;;;;;43.22;39.97;;;;;;;20.28;46.09;101941.53;4994153;28;20050;-68
2023/05/02 00:20:57;;;;;;;43.45;40.35;;;;;;;20.27;46.34;101942.66;4994297;28;20034;-67
2023/05/02 00:23:22;;;;;;;43.42;40.55;;;;;;;20.24;46.49;101937.72;4976380;28;20420;-68
2023/05/02 00:25:49;;;;;;;41.15;38.70;;;;;;;20.21;46.04;101947.34;4994248;28;20390;-67
2023/05/02 00:28:14;;;;;;;43.13;40.13;;;;;;;20.20;46.06;101951.16;4993956;28;20034;-68
2023/05/02 00:30:46;;;;;;;44.97;41.58;;;;;;;20.18;46.13;101947.06;4993921;28;20053;-67
2023/05/02 00:33:13;;;;;;;43.38;40.17;;;;;;;20.16;46.22;101947.34;4994423;28;20041;-68
2023/05/02 00:35:38;;;;;;;44.35;40.67;;;;;;;20.14;46.29;101946.81;4994087;28;20481;-68
2023/05/02 00:38:04;;;;;;;42.35;39.45;;;;;;;20.14;46.10;101951.47;4993715;28;20102;-68
2023/05/02 00:40:30;;;;;;;43.88;40.65;;;;;;;20.12;46.02;101945.44;4994414;28;20082;-67
2023/05/02 00:42:55;;;;;;;45.03;41.80;;;;;;;20.10;45.90;101952.00;4994506;28;20039;-68
2023/05/02 00:45:21;;;;;;;42.15;38.85;;;;;;;20.07;46.45;101960.78;4994517;28;20037;-68
2023/05/02 00:47:46;;;;;;;42.22;39.40;;;;;;;20.05;46.55;101953.94;4977059;28;20038;-68
2023/05/02 00:50:12;;;;;;;40.85;37.75;;;;;;;20.04;46.03;101955.06;4977071;28;20085;-67
2023/05/02 00:52:37;;;;;;;43.40;40.03;;;;;;;20.02;46.48;101955.31;4976328;28;20030;-67
2023/05/02 00:55:03;;;;;;;44.25;40.95;;;;;;;20.02;45.95;101960.00;4993909;28;20034;-66
2023/05/02 00:57:29;;;;;;;43.22;39.90;;;;;;;19.99;46.51;101958.63;4976551;28;20100;-67
2023/05/02 00:59:55;;;;;;;44.85;41.83;;;;;;;19.98;46.10;101964.38;4993906;28;20030;-67
2023/05/02 01:02:42;;;;;;;44.40;41.25;;;;;;;19.96;46.24;101967.41;4993944;28;20470;-67
2023/05/02 01:05:10;;;;;;;42.15;39.08;;;;;;;19.93;46.17;101965.19;4976862;28;20456;-67
2023/05/02 01:07:58;;;;;;;41.53;38.60;;;;;;;19.92;46.44;101965.50;4976443;28;20035;-67
2023/05/02 01:11:05;;;;;;;40.25;37.65;;;;;;;19.86;46.27;101961.94;4994401;28;20057;-67
2023/05/02 01:13:34;;;;;;;40.20;37.58;;;;;;;19.84;46.48;101953.16;4983006;28;20077;-68
2023/05/02 01:16:01;;;;;;;40.72;37.95;;;;;;;19.83;46.63;101951.50;4993745;28;20030;-68
2023/05/02 01:18:32;;;;;;;38.90;36.30;;;;;;;19.82;46.21;101947.13;4993825;28;20049;-68
2023/05/02 01:21:06;;;;;;;40.70;38.05;;;;;;;19.80;46.24;101950.13;4993761;28;20046;-68
2023/05/02 01:23:38;;;;;;;40.92;38.03;;;;;;;19.79;46.23;101950.41;4994473;28;20109;-68
2023/05/02 01:26:17;;;;;;;40.92;38.22;;;;;;;19.77;46.21;101952.59;4993962;28;20022;-67
2023/05/02 01:28:57;;;;;;;40.25;37.55;;;;;;;19.74;46.20;101943.00;4993729;28;20470;-67
2023/05/02 01:31:26;;;;;;;38.67;36.20;;;;;;;19.72;46.51;101939.72;4993823;28;20033;-68
2023/05/02 01:33:53;;;;;;;41.33;38.28;;;;;;;19.72;46.06;101949.88;4977343;28;20030;-68
2023/05/02 01:36:20;;;;;;;39.97;37.38;;;;;;;19.70;46.40;101943.84;4997239;28;20038;-67
2023/05/02 01:38:48;;;;;;;38.15;35.63;;;;;;;19.69;46.61;101944.94;4997400;28;20034;-67
2023/05/02 01:41:14;;;;;;;38.67;36.03;;;;;;;19.68;46.16;101952.34;4997209;28;20053;-68
2023/05/02 01:43:41;;;;;;;38.72;36.17;;;;;;;19.66;46.59;101949.03;4997463;28;20104;-68
2023/05/02 01:46:09;;;;;;;41.25;38.33;;;;;;;19.64;46.59;101951.22;4997042;28;20030;-67
2023/05/02 01:48:35;;;;;;;38.87;36.20;;;;;;;19.62;46.51;101951.47;4997132;28;20027;-68
2023/05/02 01:51:02;;;;;;;39.90;37.20;;;;;;;19.61;46.47;101949.84;4979682;28;20037;-68
2023/05/02 01:53:31;;;;;;;40.25;37.65;;;;;;;19.59;46.21;101953.97;4997246;28;20113;-68
2023/05/02 01:55:58;;;;;;;39.13;36.58;;;;;;;19.58;46.10;101975.06;4996825;28;20108;-68
2023/05/02 01:58:28;;;;;;;38.05;35.63;;;;;;;19.56;46.57;101968.22;4996933;28;20114;-67
2023/05/02 02:00:56;;;;;;;40.88;38.15;;;;;;;19.55;46.44;101970.09;4997151;28;20034;-68
2023/05/02 02:03:22;;;;;;;40.33;37.40;;;;;;;19.52;46.08;101967.09;4995301;28;20027;-67
2023/05/02 02:05:48;;;;;;;37.25;35.05;;;;;;;19.51;46.12;101977.25;4997216;28;20090;-66
2023/05/02 02:08:14;;;;;;;38.63;35.97;;;;;;;19.49;46.55;101981.34;4979244;28;20053;-67
2023/05/02 02:10:42;;;;;;;38.15;35.45;;;;;;;19.48;46.69;101988.75;4996936;28;20525;-67
2023/05/02 02:13:22;;;;;;;39.45;36.53;;;;;;;19.45;46.49;101995.59;4996735;28;20431;-68
2023/05/02 02:15:49;;;;;;;37.45;35.15;;;;;;;19.44;46.14;101998.59;4996931;28;20072;-67
2023/05/02 02:18:24;;;;;;;37.65;35.08;;;;;;;19.42;46.58;102003.53;4996623;28;20054;-68
2023/05/02 02:20:50;;;;;;;38.60;36.05;;;;;;;19.39;46.53;102010.38;4979350;28;20109;-68
2023/05/02 02:23:20;;;;;;;38.88;36.38;;;;;;;19.37;46.55;102009.00;4978878;28;20527;-67
2023/05/02 02:25:46;;;;;;;37.65;35.30;;;;;;;19.35;46.24;102006.56;4996693;28;20037;-67
2023/05/02 02:28:11;;;;;;;37.15;34.75;;;;;;;19.34;46.73;102010.38;4996228;28;20034;-67
2023/05/02 02:30:37;;;;;;;37.25;34.85;;;;;;;19.32;46.55;102015.28;4996530;28;20040;-67
2023/05/02 02:33:02;;;;;;;39.97;37.08;;;;;;;19.30;46.73;102002.97;4979280;28;20034;-67
2023/05/02 02:35:39;;;;;;;37.95;35.25;;;;;;;19.29;46.52;102009.53;4995935;28;20058;-67
2023/05/02 02:38:41;;;;;;;40.85;38.40;;;;;;;19.27;46.62;102014.47;4996643;28;20030;-67
2023/05/02 02:41:26;;;;;;;37.85;35.25;;;;;;;19.22;46.28;102013.34;4996099;28;20030;-67
2023/05/02 02:44:00;;;;;;;35.35;33.05;;;;;;;19.19;46.54;102015.81;4996365;28;20037;-68
2023/05/02 02:46:57;;;;;;;36.20;34.05;;;;;;;19.15;46.82;102018.28;4995731;28;20033;-67
2023/05/02 02:49:34;;;;;;;35.20;33.00;;;;;;;19.15;46.39;102017.44;4996254;28;20026;-67
2023/05/02 02:52:14;;;;;;;36.08;33.63;;;;;;;19.13;46.86;102014.16;4996369;28;20109;-68
2023/05/02 02:54:57;;;;;;;35.55;33.28;;;;;;;19.11;46.38;102019.91;4996219;28;20062;-67
2023/05/02 02:57:30;;;;;;;36.65;34.65;;;;;;;19.10;46.41;102021.00;4995756;28;20093;-68
2023/05/02 03:00:19;;;;;;;35.90;33.60;;;;;;;19.08;46.91;102019.63;4995787;28;20114;-67
2023/05/02 03:02:46;;;;;;;33.78;31.70;;;;;;;19.07;46.34;102026.19;4995481;28;20042;-68
2023/05/02 03:05:13;;;;;;;38.17;35.88;;;;;;;19.02;46.79;102033.31;4978081;28;20034;-67
2023/05/02 03:07:39;;;;;;;35.78;33.55;;;;;;;19.05;46.52;102033.84;4995679;28;20038;-67
2023/05/02 03:10:05;;;;;;;31.80;30.05;;;;;;;19.02;46.70;102029.72;4995190;28;20371;-67
2023/05/02 03:12:31;;;;;;;33.80;31.95;;;;;;;19.02;46.43;102040.66;4995510;28;20562;-68
2023/05/02 03:15:30;;;;;;;36.28;33.95;;;;;;;19.01;46.44;102041.78;4995424;28;20042;-67
2023/05/02 03:17:55;;;;;;;34.28;32.28;;;;;;;19.00;46.42;102049.16;4978803;28;20046;-67
2023/05/02 03:20:21;;;;;;;34.88;32.92;;;;;;;18.99;46.72;102050.25;4995275;28;20091;-68
2023/05/02 03:22:46;;;;;;;34.33;32.08;;;;;;;18.98;46.60;102056.00;4977941;28;20030;-68
2023/05/02 03:25:11;;;;;;;32.58;30.70;;;;;;;18.95;46.58;102054.63;4995283;28;20026;-71
2023/05/02 03:27:37;;;;;;;33.45;31.23;;;;;;;18.92;46.86;102052.41;4995312;28;20038;-67
2023/05/02 03:30:03;;;;;;;32.92;31.08;;;;;;;18.93;46.79;102058.72;4995209;28;20463;-67
2023/05/02 03:32:28;;;;;;;33.65;31.63;;;;;;;18.90;46.77;102062.81;4995046;28;20122;-68
2023/05/02 03:34:57;;;;;;;31.00;29.40;;;;;;;18.89;46.50;102063.88;4994868;28;20390;-68
2023/05/02 03:37:22;;;;;;;;;;;;;;;18.85;46.51;102065.53;4978030;28;20356;-66
2023/05/02 03:39:48;;;;;;;32.70;30.58;;;;;;;18.84;46.57;102069.34;4995073;28;20367;-67
2023/05/02 03:42:13;;;;;;;35.75;33.55;;;;;;;18.83;46.89;102064.16;4995230;28;20070;-67
2023/05/02 03:44:39;;;;;;;33.15;31.25;;;;;;;18.81;46.98;102067.16;4994904;28;20034;-67
2023/05/02 03:47:04;;;;;;;33.15;31.02;;;;;;;18.81;46.69;102069.88;4977442;28;20504;-68
2023/05/02 03:49:29;;;;;;;35.10;32.78;;;;;;;18.80;46.94;102074.53;4994784;28;20031;-67
2023/05/02 03:51:55;;;;;;;34.15;31.77;;;;;;;18.79;46.95;102075.59;4994414;28;20034;-68
2023/05/02 03:54:20;;;;;;;36.88;34.53;;;;;;;18.77;46.88;102085.19;4994704;28;20031;-68
2023/05/02 03:56:46;;;;;;;35.10;33.03;;;;;;;18.77;46.90;102079.69;4994992;28;20030;-68
2023/05/02 03:59:12;;;;;;;35.13;32.42;;;;;;;18.76;46.44;102092.56;4994202;28;20033;-67
2023/05/02 04:01:38;;;;;;;33.20;31.30;;;;;;;18.74;46.47;102100.19;4994686;28;20064;-68
2023/05/02 04:04:04;;;;;;;32.55;30.75;;;;;;;18.75;46.92;102103.78;4994596;28;20467;-67
2023/05/02 04:06:30;;;;;;;31.40;29.65;;;;;;;18.72;46.95;102102.38;4994134;28;20547;-68
2023/05/02 04:08:57;;;;;;;31.70;29.80;;;;;;;18.69;47.07;102100.16;4994529;28;20038;-68
2023/05/02 04:11:22;;;;;;;35.75;33.30;;;;;;;18.70;46.83;102106.47;4977227;28;20370;-68
2023/05/02 04:13:48;;;;;;;34.17;32.17;;;;;;;18.69;46.54;102107.53;4994969;28;20053;-67
2023/05/02 04:16:13;;;;;;;35.65;33.15;;;;;;;18.68;46.87;102108.66;4977522;28;20034;-67
2023/05/02 04:18:38;;;;;;;33.38;31.33;;;;;;;18.65;46.59;102115.47;4994579;28;20398;-68
2023/05/02 04:21:07;;;;;;;34.22;32.33;;;;;;;18.64;46.98;102124.75;4994018;28;20095;-68
2023/05/02 04:23:32;;;;;;;34.45;31.70;;;;;;;18.63;46.63;102119.56;4994997;28;20030;-67
2023/05/02 04:25:58;;;;;;;34.22;32.17;;;;;;;18.62;46.53;102131.59;4976915;28;20030;-68
2023/05/02 04:28:23;;;;;;;32.28;30.27;;;;;;;18.60;46.40;102129.94;4994444;28;20030;-67
2023/05/02 04:30:49;;;;;;;33.42;31.15;;;;;;;18.57;46.53;102135.94;4994271;28;20066;-68
2023/05/02 04:33:14;;;;;;;33.63;31.55;;;;;;;18.57;46.86;102138.69;4994068;28;20107;-68
2023/05/02 04:35:40;;;;;;;32.55;30.92;;;;;;;18.55;46.54;102149.06;4993894;28;20467;-68
2023/05/02 04:38:06;;;;;;;32.70;30.80;;;;;;;18.54;46.51;102152.03;4994364;28;20035;-68
2023/05/02 04:40:32;;;;;;;32.03;30.10;;;;;;;18.52;46.59;102156.94;4994113;28;20029;-67
2023/05/02 04:42:58;;;;;;;32.60;30.50;;;;;;;18.51;46.54;102149.84;4993786;28;20053;-67
2023/05/02 04:45:24;;;;;;;34.13;32.17;;;;;;;18.52;46.70;102165.16;4994181;28;20462;-70
2023/05/02 04:47:50;;;;;;;32.92;31.23;;;;;;;18.49;46.75;102169.25;4993809;28;20031;-68
2023/05/02 04:50:15;;;;;;;32.13;30.42;;;;;;;18.47;46.82;102168.72;4994164;28;20041;-68
2023/05/02 04:52:41;;;;;;;31.10;29.58;;;;;;;18.47;46.61;102179.66;4993727;28;20117;-69
2023/05/02 04:55:06;;;;;;;30.67;29.05;;;;;;;18.45;46.69;102175.53;4993987;28;20046;-67
2023/05/02 04:57:32;;;;;;;32.30;30.40;;;;;;;18.45;46.23;102183.72;4994115;28;20065;-67
2023/05/02 04:59:58;;;;;;;32.38;30.45;;;;;;;18.43;46.59;102178.50;4993990;28;20041;-67
2023/05/02 05:02:24;;;;;;;34.63;32.70;;;;;;;18.43;46.35;102181.25;4994285;28;20070;-73
2023/05/02 05:04:50;;;;;;;34.10;31.58;;;;;;;18.42;46.22;102185.09;4993787;28;20078;-68
2023/05/02 05:07:15;;;;;;;32.05;30.30;;;;;;;18.41;46.30;102185.31;4994243;28;20034;-69
2023/05/02 05:09:41;;;;;;;30.00;28.40;;;;;;;18.39;46.64;102188.31;4996206;28;20398;-68
2023/05/02 05:12:06;;;;;;;30.60;29.00;;;;;;;18.36;46.39;102197.88;4997423;28;20038;-68
2023/05/02 05:14:32;;;;;;;32.30;30.38;;;;;;;18.36;46.46;102191.56;4997201;28;20463;-68
2023/05/02 05:16:58;;;;;;;30.45;28.83;;;;;;;18.35;46.23;102203.63;4980148;28;20422;-68
2023/05/02 05:19:24;;;;;;;32.22;30.05;;;;;;;18.33;46.85;102201.13;4998113;28;20043;-70
2023/05/02 05:21:49;;;;;;;31.58;29.83;;;;;;;18.30;46.38;102209.84;4997496;28;20034;-70
2023/05/02 05:24:15;;;;;;;31.13;29.42;;;;;;;18.29;46.26;102213.66;4997785;28;20042;-68
2023/05/02 05:26:40;;;;;;;30.08;28.45;;;;;;;18.28;46.74;102217.50;4997477;28;20387;-66
2023/05/02 05:29:07;;;;;;;28.73;27.23;;;;;;;18.28;46.43;102219.41;4997701;28;20031;-67
2023/05/02 05:31:32;;;;;;;32.55;30.75;;;;;;;18.27;46.12;102225.94;4997269;28;20034;-68
2023/05/02 05:33:58;;;;;;;29.20;27.60;;;;;;;18.24;46.35;102227.28;4979948;28;20441;-69
2023/05/02 05:36:24;;;;;;;29.65;28.05;;;;;;;18.23;46.36;102227.56;4997369;28;20095;-68
2023/05/02 05:38:50;;;;;;;31.52;29.48;;;;;;;18.22;46.30;102228.63;4997866;28;20037;-67
2023/05/02 05:41:15;;;;;;;30.02;28.33;;;;;;;18.21;46.32;102237.94;4997221;28;20030;-68
2023/05/02 05:43:41;;;;;;;30.52;28.75;;;;;;;18.21;46.50;102237.94;4997872;28;20463;-68
2023/05/02 05:46:06;;;;;;;32.33;30.63;;;;;;;18.20;46.25;102242.56;4997478;28;20451;-67
2023/05/02 05:48:32;;;;;;;31.00;29.23;;;;;;;18.21;46.38;102246.13;4997450;28;20507;-67
2023/05/02 05:51:01;;;;;;;30.75;28.92;;;;;;;18.21;46.15;102246.13;4980204;28;20085;-68
2023/05/02 05:53:27;;;;;;;31.88;29.63;;;;;;;18.20;46.48;102242.56;4979879;28;20442;-67
2023/05/02 05:55:52;;;;;;;31.08;29.25;;;;;;;18.18;46.35;102250.22;4997222;28;20534;-68
2023/05/02 05:58:18;;;;;;;30.75;29.02;;;;;;;18.18;45.97;102247.47;4996932;28;20030;-68
2023/05/02 06:00:43;;;;;;;29.10;27.65;;;;;;;18.17;46.37;102254.03;4997066;28;20065;-67
2023/05/02 06:03:09;;;;;;;29.75;27.95;;;;;;;18.17;46.30;102259.50;4979833;28;20034;-67
2023/05/02 06:05:34;;;;;;;31.98;29.35;;;;;;;18.16;46.11;102264.13;4997022;28;20113;-68
2023/05/02 06:07:59;;;;;;;29.20;27.50;;;;;;;18.16;46.23;102266.84;4997242;28;20045;-67
2023/05/02 06:10:25;;;;;;;31.48;29.85;;;;;;;18.16;46.10;102261.38;4996699;28;20470;-69
2023/05/02 06:12:50;;;;;;;29.50;27.58;;;;;;;18.16;46.25;102272.34;4979260;28;20137;-69
2023/05/02 06:15:16;;;;;;;28.73;27.20;;;;;;;18.17;45.97;102282.22;4996686;28;20062;-69
2023/05/02 06:17:41;;;;;;;29.67;28.17;;;;;;;18.17;46.15;102279.47;4996989;28;20470;-68
2023/05/02 06:20:08;;;;;;;29.00;27.60;;;;;;;18.19;46.18;102272.91;4996045;28;20034;-67
2023/05/02 06:22:33;;;;;;;30.95;28.98;;;;;;;18.17;45.72;102287.69;4996578;28;20486;-67
2023/05/02 06:24:59;;;;;;;30.05;28.33;;;;;;;18.16;45.96;102286.00;4996506;28;20038;-67
2023/05/02 06:27:25;;;;;;;32.15;30.30;;;;;;;18.18;45.96;102293.97;4996015;28;20537;-67
2023/05/02 06:29:51;;;;;;;30.63;29.02;;;;;;;18.18;45.81;102296.69;4996313;28;20049;-68
2023/05/02 06:32:17;;;;;;;29.00;27.55;;;;;;;18.17;45.98;102298.63;4996243;28;20034;-67
2023/05/02 06:34:42;;;;;;;29.55;28.00;;;;;;;18.18;45.98;102304.91;4979633;28;20069;-68
2023/05/02 06:37:08;;;;;;;29.80;28.17;;;;;;;18.19;46.16;102312.00;4996596;28;20070;-67
2023/05/02 06:39:33;;;;;;;30.73;29.08;;;;;;;18.20;45.66;102316.44;4996179;28;20122;-67
2023/05/02 06:41:59;;;;;;;29.65;28.25;;;;;;;18.20;46.01;102315.59;4996407;28;20117;-67
2023/05/02 06:44:24;;;;;;;29.92;28.48;;;;;;;18.20;45.92;102316.44;4996324;28;20034;-67
2023/05/02 06:46:50;;;;;;;29.65;28.15;;;;;;;18.21;46.04;102320.78;4995728;28;20038;-67
2023/05/02 06:49:15;;;;;;;31.92;30.00;;;;;;;18.22;45.97;102327.09;4995737;28;20045;-68
2023/05/02 06:51:41;;;;;;;30.05;28.40;;;;;;;18.24;45.96;102327.66;4995901;28;20026;-69
2023/05/02 06:54:07;;;;;;;29.55;27.77;;;;;;;18.24;46.33;102328.47;4995961;28;20470;-69
2023/05/02 06:56:33;;;;;;;32.40;30.65;;;;;;;18.27;46.12;102329.88;4995826;28;20031;-70
2023/05/02 06:58:58;;;;;;;29.40;27.80;;;;;;;18.27;46.42;102333.47;4995819;28;20037;-67
2023/05/02 07:01:24;;;;;;;29.90;28.23;;;;;;;18.26;46.28;102334.53;4995760;28;20477;-68
2023/05/02 07:03:49;;;;;;;28.63;27.08;;;;;;;18.25;46.21;102343.84;4995778;28;20030;-67
2023/05/02 07:06:15;;;;;;;30.50;28.88;;;;;;;18.27;46.19;102354.50;4996169;28;20034;-67
2023/05/02 07:08:40;;;;;;;31.30;29.50;;;;;;;18.27;46.06;102352.63;4995941;28;20030;-68
2023/05/02 07:11:06;;;;;;;31.23;29.02;;;;;;;18.28;46.54;102365.19;4995855;28;20034;-67
2023/05/02 07:13:31;;;;;;;29.40;27.58;;;;;;;18.29;45.89;102364.09;4995774;28;20045;-67
2023/05/02 07:15:57;;;;;;;30.90;29.20;;;;;;;18.30;46.23;102364.97;4995280;28;20045;-67
2023/05/02 07:18:22;;;;;;;30.08;28.58;;;;;;;18.31;46.36;102363.88;4995740;28;20467;-67
2023/05/02 07:20:48;;;;;;;30.13;28.55;;;;;;;18.32;46.64;102374.56;4977846;28;20026;-69
2023/05/02 07:23:13;;;;;;;30.15;28.38;;;;;;;18.34;46.43;102375.13;4978288;28;20041;-68
2023/05/02 07:25:39;;;;;;;32.33;30.38;;;;;;;18.36;46.26;102377.59;4978340;28;20038;-67
2023/05/02 07:28:05;;;;;;;29.65;28.15;;;;;;;18.36;46.29;102372.13;4995112;28;20033;-68
2023/05/02 07:30:31;;;;;;;31.23;29.55;;;;;;;18.38;46.54;102369.97;4994963;28;20456;-68
2023/05/02 07:32:56;;;;;;;32.05;30.20;;;;;;;18.39;46.20;102382.56;4994529;28;20026;-67
2023/05/02 07:35:22;;;;;;;31.02;29.33;;;;;;;18.40;46.19;102378.75;4994723;28;20541;-68
2023/05/02 07:37:47;;;;;;;28.95;27.42;;;;;;;18.40;46.59;102378.75;4977119;28;20063;-68
2023/05/02 07:40:13;;;;;;;29.48;27.98;;;;;;;18.40;46.40;102381.50;4994770;28;20041;-69
2023/05/02 07:42:40;;;;;;;31.23;29.63;;;;;;;18.40;46.34;102391.63;4995045;28;20128;-68
2023/05/02 07:45:06;;;;;;;32.33;30.52;;;;;;;18.40;46.59;102384.22;4994658;28;20046;-67
2023/05/02 07:47:31;;;;;;;31.38;29.58;;;;;;;18.43;46.70;102396.56;4994388;28;20081;-69
2023/05/02 07:49:57;;;;;;;32.08;30.27;;;;;;;18.44;46.34;102393.56;4994644;28;20034;-68
2023/05/02 07:52:22;;;;;;;30.73;29.02;;;;;;;18.45;46.35;102400.69;4994072;28;20109;-67
2023/05/02 07:54:48;;;;;;;30.45;28.52;;;;;;;18.44;46.70;102401.75;4994413;28;20041;-68
2023/05/02 07:57:14;;;;;;;31.27;29.77;;;;;;;18.45;46.77;102400.69;4994396;28;20034;-68
2023/05/02 07:59:40;;;;;;;31.05;29.25;;;;;;;18.45;46.20;102400.69;4994751;28;20045;-66
2023/05/02 08:02:05;;;;;;;30.60;28.92;;;;;;;18.47;46.64;102408.63;4994111;28;20038;-70
2023/05/02 08:04:31;;;;;;;29.77;28.17;;;;;;;18.48;46.34;102402.91;4994785;28;20053;-69
2023/05/02 08:06:56;;;;;;;31.45;29.85;;;;;;;18.49;46.54;102403.75;4994766;28;20080;-68
2023/05/02 08:09:22;;;;;;;30.20;28.40;;;;;;;18.48;46.73;102408.41;4976977;28;20113;-68
2023/05/02 08:11:47;;;;;;;32.15;30.02;;;;;;;18.49;46.68;102401.81;4993866;28;20108;-70
2023/05/02 08:14:15;;;;;;;28.63;27.13;;;;;;;18.53;46.32;102407.63;4994497;28;20030;-68
2023/05/02 08:16:40;;;;;;;31.33;29.73;;;;;;;18.53;46.28;102421.31;4994068;28;20066;-69
2023/05/02 08:19:06;;;;;;;29.77;28.27;;;;;;;18.55;46.28;102417.25;4994724;28;20089;-69
2023/05/02 08:21:31;;;;;;;31.30;29.60;;;;;;;18.58;46.68;102424.13;4994185;28;20053;-70
2023/05/02 08:23:58;;;;;;;31.83;30.13;;;;;;;18.58;46.30;102416.72;4977348;28;20034;-68
2023/05/02 08:26:24;;;;;;;31.50;29.80;;;;;;;18.62;46.64;102424.41;4994113;28;20030;-67
2023/05/02 08:28:53;;;;;;;33.90;31.67;;;;;;;18.65;46.30;102423.91;4994199;28;20033;-68
2023/05/02 08:31:18;;;;;;;30.75;29.02;;;;;;;18.66;46.05;102426.38;4993947;28;20490;-68
2023/05/02 08:33:44;;;;;;;31.55;29.85;;;;;;;18.69;46.33;102438.72;4993877;28;20510;-68
2023/05/02 08:36:14;;;;;;;30.55;28.90;;;;;;;18.71;46.09;102440.13;4993901;28;20044;-67
2023/05/02 08:38:43;;;;;;;30.80;29.20;;;;;;;18.74;46.53;102442.34;4993889;28;20030;-68
2023/05/02 08:41:13;;;;;;;31.10;29.50;;;;;;;18.77;46.29;102449.25;4994213;28;20030;-67
2023/05/02 08:43:38;;;;;;;32.72;30.95;;;;;;;18.80;45.80;102448.78;4993390;28;20056;-68
2023/05/02 08:46:07;;;;;;;31.40;29.70;;;;;;;18.80;46.07;102449.59;4994074;28;20374;-69
2023/05/02 08:48:35;;;;;;;32.00;30.40;;;;;;;18.85;46.01;102456.19;4993855;28;20475;-68
2023/05/02 08:51:02;;;;;;;30.35;28.85;;;;;;;18.86;46.35;102458.69;4993763;28;20081;-70
2023/05/02 08:53:31;;;;;;;32.88;30.90;;;;;;;18.91;46.12;102466.94;4993639;28;20085;-68
2023/05/02 08:55:57;;;;;;;31.90;30.20;;;;;;;18.94;45.98;102466.44;4994163;28;20030;-67
2023/05/02 08:58:22;;;;;;;31.48;29.88;;;;;;;18.96;45.89;102461.53;4994203;28;20045;-68
2023/05/02 09:00:50;;;;;;;34.65;32.58;;;;;;;18.99;45.87;102462.91;4993855;28;20034;-69
2023/05/02 09:03:32;;;;;;;34.65;32.10;;;;;;;19.02;46.48;102463.25;4993697;28;20034;-68
2023/05/02 09:06:13;;;;;;;33.03;31.33;;;;;;;19.05;46.31;102463.78;4976525;28;20477;-68
2023/05/02 09:08:40;;;;;;;32.30;30.67;;;;;;;19.08;46.58;102464.13;4994110;28;20082;-68
2023/05/02 09:11:08;;;;;;;32.85;30.83;;;;;;;19.13;46.24;102475.13;4993591;28;20118;-68
2023/05/02 09:13:44;;;;;;;33.17;31.58;;;;;;;19.16;46.47;102482.00;4993567;28;20035;-67
2023/05/02 09:16:28;;;;;;;33.90;32.05;;;;;;;19.20;46.20;102480.38;4993669;28;20041;-67
2023/05/02 09:18:55;;;;;;;33.38;31.48;;;;;;;19.23;46.46;102480.72;4993730;28;20054;-68
2023/05/02 09:21:25;;;;;;;32.25;30.33;;;;;;;19.27;46.33;102483.75;4994022;28;20039;-68
2023/05/02 09:23:56;;;;;;;34.15;32.25;;;;;;;19.30;46.46;102487.88;4993333;28;20030;-67
2023/05/02 09:26:32;;;;;;;32.78;31.17;;;;;;;19.32;46.66;102491.19;4993898;28;20129;-68
2023/05/02 09:29:00;;;;;;;36.78;34.83;;;;;;;19.34;46.74;102489.84;4993530;28;20031;-68
2023/05/02 09:31:37;;;;;;;34.78;32.58;;;;;;;19.38;46.72;102493.75;4976432;28;20034;-68
2023/05/02 09:34:10;;;;;;;33.33;31.52;;;;;;;19.43;46.26;102496.53;4993388;28;20090;-68
2023/05/02 09:36:46;;;;;;;34.17;32.47;;;;;;;19.46;46.42;102490.53;4993475;28;20530;-70
2023/05/02 09:39:15;;;;;;;34.63;32.72;;;;;;;19.51;46.41;102494.41;4993190;28;20426;-69
2023/05/02 09:41:44;;;;;;;34.80;33.08;;;;;;;19.53;46.56;102495.81;4993771;28;20034;-69
2023/05/02 09:44:11;;;;;;;34.78;32.88;;;;;;;19.58;46.57;102489.50;4976183;28;20475;-69
2023/05/02 09:46:41;;;;;;;33.58;31.88;;;;;;;19.61;46.29;102499.97;4994059;28;20073;-69
2023/05/02 09:49:09;;;;;;;35.90;34.00;;;;;;;19.65;46.38;102504.69;4993306;28;20030;-71
2023/05/02 09:51:34;;;;;;;34.40;32.42;;;;;;;19.69;46.20;102501.44;4993372;28;20034;-68
2023/05/02 09:54:00;;;;;;;35.55;33.67;;;;;;;19.72;46.35;102515.44;4992976;28;20050;-69
2023/05/02 09:56:26;;;;;;;35.95;34.00;;;;;;;19.76;46.21;102519.31;4977781;28;20035;-70
2023/05/02 09:59:10;;;;;;;36.67;34.78;;;;;;;19.80;46.13;102519.63;4980077;28;20419;-69
2023/05/02 10:01:35;;;;;;;34.67;32.97;;;;;;;19.85;46.66;102527.88;4996835;28;20062;-68
2023/05/02 10:04:03;;;;;;;34.70;32.80;;;;;;;19.87;46.75;102525.72;4996920;28;20115;-70
2023/05/02 10:06:29;;;;;;;36.05;34.25;;;;;;;19.91;46.42;102515.88;4979524;28;20117;-68
2023/05/02 10:08:55;;;;;;;36.08;34.28;;;;;;;19.96;46.17;102513.19;4997159;28;20033;-69
2023/05/02 10:11:21;;;;;;;36.00;34.10;;;;;;;19.99;46.63;102509.09;4996595;28;20031;-69
2023/05/02 10:13:47;;;;;;;36.22;34.15;;;;;;;20.01;46.71;102506.91;4996855;28;20439;-68
2023/05/02 10:16:21;;;;;;;36.13;34.13;;;;;;;20.04;46.68;102512.69;4996640;28;20477;-68
2023/05/02 10:19:09;;;;;;;36.65;34.70;;;;;;;20.05;46.12;102505.28;4996696;28;20050;-69
2023/05/02 10:21:35;;;;;;;35.55;33.72;;;;;;;20.09;46.46;102514.66;4996592;28;20466;-69
2023/05/02 10:24:04;;;;;;;37.88;35.72;;;;;;;20.11;46.13;102509.72;4996396;28;20026;-69
2023/05/02 10:26:30;;;;;;;;;;;;;;;20.13;46.03;102520.41;4997416;28;20092;-67
2023/05/02 10:28:55;;;;;;;36.42;34.53;;;;;;;20.14;46.10;102513.84;4996241;28;19914;-68
2023/05/02 10:31:22;;;;;;;35.20;33.45;;;;;;;20.17;46.13;102516.88;4996368;28;20043;-71
2023/05/02 10:33:51;;;;;;;37.55;35.15;;;;;;;20.21;46.04;102519.91;4996264;28;20517;-73
2023/05/02 10:36:22;;;;;;;35.90;33.92;;;;;;;20.22;46.42;102519.66;4995842;28;20426;-71
2023/05/02 10:38:48;;;;;;;37.45;35.50;;;;;;;20.24;46.27;102514.75;4978688;28;20482;-71
2023/05/02 10:41:25;;;;;;;37.55;35.40;;;;;;;20.26;45.15;102507.06;4979168;28;20026;-66
2023/05/02 10:43:52;;;;;;;38.53;36.03;;;;;;;20.30;45.78;102510.09;4995906;28;20034;-67
2023/05/02 10:46:31;;;;;;;35.72;33.80;;;;;;;20.31;44.74;102503.53;4996461;28;20034;-68
2023/05/02 10:49:11;;;;;;;38.95;36.60;;;;;;;20.33;45.53;102504.06;4996295;28;20030;-68
2023/05/02 10:51:38;;;;;;;37.45;35.45;;;;;;;20.35;45.62;102512.88;4978546;28;20471;-67
2023/05/02 10:54:16;;;;;;;37.17;35.17;;;;;;;20.38;45.37;102520.56;4995660;28;20040;-67
2023/05/02 10:57:04;;;;;;;38.08;36.08;;;;;;;20.41;45.19;102524.69;4995647;28;20038;-68
2023/05/02 10:59:38;;;;;;;38.63;36.63;;;;;;;20.41;45.36;102528.28;4995380;28;20030;-67
2023/05/02 11:02:23;;;;;;;37.88;35.97;;;;;;;20.46;45.70;102530.22;4995687;28;20042;-69
2023/05/02 11:05:03;;;;;;;39.38;37.05;;;;;;;20.46;45.62;102525.59;4995438;28;20121;-68
2023/05/02 11:07:30;;;;;;;37.83;35.85;;;;;;;20.49;45.19;102535.19;4995102;28;20029;-66
2023/05/02 11:10:14;;;;;;;40.10;37.85;;;;;;;20.53;45.56;102539.06;4995656;28;20058;-67
2023/05/02 11:12:44;;;;;;;37.35;35.33;;;;;;;20.56;45.79;102541.28;4995592;28;20027;-67
2023/05/02 11:15:09;;;;;;;37.90;35.70;;;;;;;20.58;45.45;102532.78;4995273;28;20022;-70